Skip Navigation LinksHome page > Weather > Current weather Skip Navigation Links

Current Weather

Cincinnati/Northern Kentucky International, Covington, Ky.

For information only: do not use for flight planning or navigation.
Latest weather
Observation time Monday, June 21, 2021 9:52 PM EDT
Local time Monday, June 21, 2021 10:14 PM EDT
Flight conditions Visual Meteorological Conditions
Winds
Wind direction West-Northwest (300°)
Wind speed 7 mph
Visibility 10 mi.
Present weather light rain
Sky condition
Ceiling 9,000 ft. broken clouds
Cloud layer broken clouds 9,000 ft.
Cloud layer overcast 11,000 ft.
Temperature 65°F
Dewpoint 59°F
Altimeter 29.85 in.Hg
Precipitation
Precipitation last hour trace
Derived measurements
Relative humidity 81%
Density altitude 1601 ft.
Sea-level pressure 29.82 in.Hg
Remarks
Automated weather observing station with precipitation discriminator.
METAR KCVG 220152Z 30006KT 10SM -RA BKN090 OVC110 18/15 A2985 RMK AO2 SLP097 P0000 T01830150

Settings

Location code

InnerDrive.Weather 4.0.6770.0 Release CLR 4.0.30319.42000
Copyright ©2018 Inner Drive Technology. All rights reserved. Portions Copyright ©1986-2018 David Braverman.

Find weather

Site navigation


Skip Navigation Links

Place info

Page info

PayPal - The safer, easier way to pay online!

Return home.

Copyright ©2021 Inner Drive Technology. Purveyors of fine, hand-crafted computer software. Page printed 2021-06-22T02:14:30 UTC.